Marola — IBFL — position and weather

sailwx.info

Track history (hours):
 
Tides and Currents Weather Stations Pressure Air Temp Water Temp Dewpoint Dewpoint Depression Visibility Wind Speed Wind Dir Waves Ship Positions

Marola

Last reported at 2015-May-12 17:22 UTC. Time now 2015-May-26 13:51 UTC.
Position S 23°23' W 040°40'.
Warning: this ship's position is 13 days out of date.

Length 180 m; draft 7.2 m.

Type: Ship. MMSI: 247094900.

Date/timePositionNaut miles runAvg speedWind from/ knotsBaromVisibWave heightAir tempDewpointWater temp
2015-May-12 17:22S 23°23' W 040°40'2815.1
2015-May-12 15:29S 23°37' W 041°07'23715.4
2015-May-12 00:07S 24°16' W 045°23'916.9
2015-May-11 23:33S 24°18' W 045°33'1717.0
2015-May-11 22:33S 24°21' W 045°52'1717.2
2015-May-11 21:33S 24°24' W 046°11'1515.5
2015-May-11 20:33S 24°12' W 046°22'1312.6
2015-May-11 19:34S 24°00' W 046°20'5 5.0
2015-May-11 18:33S 23°55' W 046°21'3 3.2
2015-May-11 17:32S 23°52' W 046°22'0 0.0
2015-May-11 14:32S 23°52' W 046°22'0 0.0
2015-May-11 13:14S 23°52' W 046°22'0 0.0
2015-May-11 12:26S 23°52' W 046°22'0 0.0
2015-May-11 11:23S 23°52' W 046°22'0 0.0
2015-May-11 10:32S 23°52' W 046°22'0 0.0
2015-May-11 09:32S 23°52' W 046°22'0 0.0
2015-May-11 08:08S 23°52' W 046°22'0 0.0
2015-May-11 07:29S 23°52' W 046°22'0 0.0
2015-May-11 06:29S 23°52' W 046°22'0 0.0
2015-May-11 05:32S 23°52' W 046°22'0 0.0
2015-May-11 04:32S 23°52' W 046°22'0 0.0
2015-May-11 03:32S 23°52' W 046°22'0 0.0
2015-May-11 02:32S 23°52' W 046°22'0 0.0
2015-May-11 01:32S 23°52' W 046°22'0 0.0
2015-May-11 00:08S 23°52' W 046°22'0 0.0
2015-May-10 23:32S 23°52' W 046°22'0 0.0
2015-May-10 22:20S 23°52' W 046°22'0 0.0
2015-May-10 21:32S 23°52' W 046°22'0 0.0
2015-May-10 20:29S 23°52' W 046°22'0 0.0
2015-May-10 19:32S 23°52' W 046°22'0 0.0
2015-May-10 18:32S 23°52' W 046°22'0 0.0
2015-May-10 17:26S 23°52' W 046°22'0 0.0
2015-May-10 16:32S 23°52' W 046°22'0 0.0
2015-May-10 15:32S 23°52' W 046°22'3 3.2
2015-May-10 14:33S 23°55' W 046°21'5 5.0
2015-May-10 13:34S 24°00' W 046°20'10 9.8
2015-May-10 12:33S 24°09' W 046°24'1313.6
2015-May-10 11:33S 24°21' W 046°16'1414.1
2015-May-10 10:33S 24°22' W 046°00'1615.9
2015-May-10 09:33S 24°19' W 045°43'  
Track history (hours):
 
Tides and Currents Weather Stations Pressure Air Temp Water Temp Dewpoint Dewpoint Depression Visibility Wind Speed Wind Dir Waves Ship Positions

Marola

Last reported at 2015-May-12 17:22 UTC. Time now 2015-May-26 13:51 UTC.
Position S 23°23' W 040°40'.
Warning: this ship's position is 13 days out of date.

Length 180 m; draft 7.2 m.

Type: Ship. MMSI: 247094900.

Date/timePositionNaut miles runAvg speedWind from/ knotsBaromVisibWave heightAir tempDewpointWater temp
2015-May-12 17:22S 23°23' W 040°40'2815.1
2015-May-12 15:29S 23°37' W 041°07'23715.4
2015-May-12 00:07S 24°16' W 045°23'916.9
2015-May-11 23:33S 24°18' W 045°33'1717.0
2015-May-11 22:33S 24°21' W 045°52'1717.2
2015-May-11 21:33S 24°24' W 046°11'1515.5
2015-May-11 20:33S 24°12' W 046°22'1312.6
2015-May-11 19:34S 24°00' W 046°20'5 5.0
2015-May-11 18:33S 23°55' W 046°21'3 3.2
2015-May-11 17:32S 23°52' W 046°22'0 0.0
2015-May-11 14:32S 23°52' W 046°22'0 0.0
2015-May-11 13:14S 23°52' W 046°22'0 0.0
2015-May-11 12:26S 23°52' W 046°22'0 0.0
2015-May-11 11:23S 23°52' W 046°22'0 0.0
2015-May-11 10:32S 23°52' W 046°22'0 0.0
2015-May-11 09:32S 23°52' W 046°22'0 0.0
2015-May-11 08:08S 23°52' W 046°22'0 0.0
2015-May-11 07:29S 23°52' W 046°22'0 0.0
2015-May-11 06:29S 23°52' W 046°22'0 0.0
2015-May-11 05:32S 23°52' W 046°22'0 0.0
2015-May-11 04:32S 23°52' W 046°22'0 0.0
2015-May-11 03:32S 23°52' W 046°22'0 0.0
2015-May-11 02:32S 23°52' W 046°22'0 0.0
2015-May-11 01:32S 23°52' W 046°22'0 0.0
2015-May-11 00:08S 23°52' W 046°22'0 0.0
2015-May-10 23:32S 23°52' W 046°22'0 0.0
2015-May-10 22:20S 23°52' W 046°22'0 0.0
2015-May-10 21:32S 23°52' W 046°22'0 0.0
2015-May-10 20:29S 23°52' W 046°22'0 0.0
2015-May-10 19:32S 23°52' W 046°22'0 0.0
2015-May-10 18:32S 23°52' W 046°22'0 0.0
2015-May-10 17:26S 23°52' W 046°22'0 0.0
2015-May-10 16:32S 23°52' W 046°22'0 0.0
2015-May-10 15:32S 23°52' W 046°22'3 3.2
2015-May-10 14:33S 23°55' W 046°21'5 5.0
2015-May-10 13:34S 24°00' W 046°20'10 9.8
2015-May-10 12:33S 24°09' W 046°24'1313.6
2015-May-10 11:33S 24°21' W 046°16'1414.1
2015-May-10 10:33S 24°22' W 046°00'1615.9
2015-May-10 09:33S 24°19' W 045°43'  

Dump ship's entire track history